createdAt,value
2022-11-09T00:01:00.678Z,0.75
2022-11-09T00:03:02.906Z,0.75
2022-11-09T00:04:57.926Z,0.75
2022-11-09T00:06:58.696Z,0.75
2022-11-09T00:09:01.403Z,0.75
2022-11-09T00:10:58.726Z,0.75
2022-11-09T00:12:58.551Z,0.75
2022-11-09T00:14:58.308Z,0.75
2022-11-09T00:16:58.807Z,0.75
2022-11-09T00:18:57.711Z,0.75
2022-11-09T00:20:59.743Z,0.75
2022-11-09T00:22:58.160Z,0.75
2022-11-09T00:24:57.857Z,0.75
2022-11-09T00:26:57.823Z,0.75
2022-11-09T00:28:58.364Z,0.75
2022-11-09T00:30:57.984Z,0.75
2022-11-09T00:33:01.864Z,0.75
2022-11-09T00:34:57.984Z,0.75
2022-11-09T00:36:58.322Z,0.75
2022-11-09T00:38:57.788Z,0.75
2022-11-09T00:40:58.511Z,0.75
2022-11-09T00:42:58.490Z,0.75
2022-11-09T00:44:58.802Z,0.75
2022-11-09T00:46:58.583Z,0.75
2022-11-09T00:48:58.427Z,0.75
2022-11-09T00:50:58.085Z,0.75
2022-11-09T00:52:58.222Z,0.75
2022-11-09T00:54:57.662Z,0.75
2022-11-09T00:56:58.145Z,0.75
2022-11-09T00:58:58.062Z,0.75
2022-11-09T01:01:03.682Z,0.75
2022-11-09T01:02:58.296Z,0.75
2022-11-09T01:04:58.268Z,0.75
2022-11-09T01:06:58.746Z,0.75
2022-11-09T01:08:58.444Z,0.75
2022-11-09T01:10:58.317Z,0.75
2022-11-09T01:12:57.757Z,0.75
2022-11-09T01:14:58.188Z,0.75
2022-11-09T01:16:58.208Z,0.75
2022-11-09T01:18:58.054Z,0.75
2022-11-09T01:20:57.744Z,0.75
2022-11-09T01:22:57.895Z,0.75
2022-11-09T01:24:58.375Z,0.75
2022-11-09T01:26:58.021Z,0.75
2022-11-09T01:28:58.285Z,0.75
2022-11-09T01:30:57.939Z,0.75
2022-11-09T01:32:58.375Z,0.75
2022-11-09T01:34:57.822Z,0.75
2022-11-09T01:36:58.536Z,0.75
2022-11-09T01:38:57.752Z,0.75
2022-11-09T01:40:57.949Z,0.75
2022-11-09T01:42:57.723Z,0.75
2022-11-09T01:44:57.888Z,0.75
2022-11-09T01:46:58.311Z,0.75
2022-11-09T01:48:57.704Z,0.75
2022-11-09T01:50:57.884Z,0.75
2022-11-09T01:52:57.686Z,0.75
2022-11-09T01:54:57.963Z,0.75
2022-11-09T01:56:57.689Z,0.75
2022-11-09T01:58:58.363Z,0.75
2022-11-09T02:01:00.751Z,0.75
2022-11-09T02:02:57.798Z,0.75
2022-11-09T02:04:57.784Z,0.75
2022-11-09T02:06:58.676Z,0.75
2022-11-09T02:08:58.140Z,0.75
2022-11-09T02:10:58.091Z,0.75
2022-11-09T02:12:58.578Z,0.75
2022-11-09T02:14:57.785Z,0.75
2022-11-09T02:16:57.631Z,0.75
2022-11-09T02:18:58.503Z,0.75
2022-11-09T02:20:58.738Z,0.75
2022-11-09T02:22:57.868Z,0.75
2022-11-09T02:24:57.720Z,0.75
2022-11-09T02:26:58.441Z,0.75
2022-11-09T02:28:58.065Z,0.75
2022-11-09T02:30:58.293Z,0.75
2022-11-09T02:32:57.840Z,0.75
2022-11-09T02:34:58.363Z,0.75
2022-11-09T02:36:58.044Z,0.75
2022-11-09T02:38:57.937Z,0.75
2022-11-09T02:40:58.241Z,0.75
2022-11-09T02:43:06.154Z,0.75
2022-11-09T02:44:58.161Z,0.75
2022-11-09T02:46:58.337Z,0.75
2022-11-09T02:48:57.664Z,0.75
2022-11-09T02:50:57.933Z,0.75
2022-11-09T02:52:57.760Z,0.75
2022-11-09T02:54:58.156Z,0.75
2022-11-09T02:56:58.369Z,0.75
2022-11-09T02:58:58.273Z,0.75
2022-11-09T03:01:01.168Z,0.75
2022-11-09T03:02:57.797Z,0.75
2022-11-09T03:04:58.359Z,0.75
2022-11-09T03:06:58.048Z,0.75
2022-11-09T03:08:57.974Z,0.75
2022-11-09T03:10:58.084Z,0.75
2022-11-09T03:12:58.177Z,0.75
2022-11-09T03:14:57.503Z,0.75
2022-11-09T03:17:02.269Z,0.75
2022-11-09T03:18:57.994Z,0.75
2022-11-09T03:20:58.453Z,0.75
2022-11-09T03:22:58.087Z,0.75
2022-11-09T03:24:57.858Z,0.75
2022-11-09T03:26:57.532Z,0.75
2022-11-09T03:28:58.330Z,0.75
2022-11-09T03:30:58.381Z,0.75
2022-11-09T03:33:01.892Z,0.75
2022-11-09T03:34:58.403Z,0.75
2022-11-09T03:36:57.786Z,0.75
2022-11-09T03:38:58.312Z,0.75
2022-11-09T03:40:57.963Z,0.75
2022-11-09T03:42:58.586Z,0.75
2022-11-09T03:44:57.998Z,0.75
2022-11-09T03:46:58.027Z,0.75
2022-11-09T03:48:58.377Z,0.75
2022-11-09T03:50:58.109Z,0.75
2022-11-09T03:52:58.260Z,0.75
2022-11-09T03:54:57.676Z,0.75
2022-11-09T03:56:57.790Z,0.75
2022-11-09T03:58:58.045Z,0.75
2022-11-09T04:01:01.512Z,0.75
2022-11-09T04:02:58.618Z,0.75
2022-11-09T04:04:58.131Z,0.75
2022-11-09T04:06:58.020Z,0.75
2022-11-09T04:09:02.816Z,0.75
2022-11-09T04:10:58.495Z,0.75
2022-11-09T04:12:57.710Z,0.75
2022-11-09T04:14:58.065Z,0.75
2022-11-09T04:16:58.552Z,0.75
2022-11-09T04:18:58.020Z,0.75
2022-11-09T04:20:57.946Z,0.75
2022-11-09T04:22:58.108Z,0.75
2022-11-09T04:24:58.284Z,0.75
2022-11-09T04:26:57.971Z,0.75
2022-11-09T04:28:57.583Z,0.75
2022-11-09T04:30:58.167Z,0.75
2022-11-09T04:32:57.946Z,0.75
2022-11-09T04:34:58.440Z,0.75
2022-11-09T04:36:58.097Z,0.75
2022-11-09T04:38:57.799Z,0.75
2022-11-09T04:40:57.806Z,0.75
2022-11-09T04:42:58.378Z,0.75
2022-11-09T04:44:57.927Z,0.75
2022-11-09T04:46:58.356Z,0.75
2022-11-09T04:48:58.142Z,0.75
2022-11-09T04:50:58.399Z,0.75
2022-11-09T04:52:57.720Z,0.75
2022-11-09T04:54:58.186Z,0.75
2022-11-09T04:56:57.566Z,0.75
2022-11-09T04:58:59.026Z,0.75
2022-11-09T05:01:00.891Z,0.75
2022-11-09T05:02:57.560Z,0.75
2022-11-09T05:04:58.500Z,0.75
2022-11-09T05:06:58.779Z,0.75
2022-11-09T05:08:57.717Z,0.75
2022-11-09T05:10:58.091Z,0.75
2022-11-09T05:12:58.382Z,0.75
2022-11-09T05:14:57.846Z,0.75
2022-11-09T05:16:58.403Z,0.75
2022-11-09T05:18:57.734Z,0.75
2022-11-09T05:20:58.332Z,0.75
2022-11-09T05:22:57.721Z,0.75
2022-11-09T05:24:57.858Z,0.75
2022-11-09T05:26:58.145Z,0.75
2022-11-09T05:28:57.707Z,0.75
2022-11-09T05:30:58.389Z,0.75
2022-11-09T05:32:57.817Z,0.75
2022-11-09T05:34:58.520Z,0.75
2022-11-09T05:37:03.132Z,0.75
2022-11-09T05:38:57.679Z,0.75
2022-11-09T05:40:57.721Z,0.75
2022-11-09T05:42:58.147Z,0.75
2022-11-09T05:45:07.256Z,0.75
2022-11-09T05:47:03.050Z,0.75
2022-11-09T05:48:58.076Z,0.75
2022-11-09T05:50:58.535Z,0.75
2022-11-09T05:52:57.622Z,0.75
2022-11-09T05:54:58.287Z,0.75
2022-11-09T05:56:58.144Z,0.75
2022-11-09T05:58:58.343Z,0.75
2022-11-09T06:01:06.225Z,0.75
2022-11-09T06:02:58.697Z,0.75
2022-11-09T06:04:57.805Z,0.75
2022-11-09T06:07:05.166Z,0.75
2022-11-09T06:08:58.598Z,0.75
2022-11-09T06:10:57.715Z,0.75
2022-11-09T06:12:57.733Z,0.75
2022-11-09T06:14:58.292Z,0.75
2022-11-09T06:16:57.872Z,0.75
2022-11-09T06:18:57.827Z,0.75
2022-11-09T06:20:58.359Z,0.75
2022-11-09T06:23:02.778Z,0.75
2022-11-09T06:24:58.380Z,0.75
2022-11-09T06:26:57.695Z,0.75
2022-11-09T06:28:58.028Z,0.75
2022-11-09T06:30:57.674Z,0.75
2022-11-09T06:32:57.949Z,0.75
2022-11-09T06:34:57.817Z,0.75
2022-11-09T06:36:57.903Z,0.75
2022-11-09T06:38:57.578Z,0.75
2022-11-09T06:40:57.762Z,0.75
2022-11-09T06:42:58.677Z,0.75
2022-11-09T06:44:58.020Z,0.75
2022-11-09T06:46:57.970Z,0.75
2022-11-09T06:49:05.559Z,0.75
2022-11-09T06:50:58.382Z,0.75
2022-11-09T06:52:57.479Z,0.75
2022-11-09T06:54:58.283Z,0.75
2022-11-09T06:56:57.820Z,0.75
2022-11-09T06:58:58.502Z,0.75
2022-11-09T07:01:00.532Z,0.75
2022-11-09T07:02:58.480Z,0.75
2022-11-09T07:04:58.156Z,0.75
2022-11-09T07:06:58.691Z,0.75
2022-11-09T07:08:58.370Z,0.75
2022-11-09T07:10:58.088Z,0.75
2022-11-09T07:12:58.414Z,0.75
2022-11-09T07:14:58.075Z,0.75
2022-11-09T07:16:58.105Z,0.75
2022-11-09T07:18:58.418Z,0.75
2022-11-09T07:20:58.060Z,0.75
2022-11-09T07:22:58.201Z,0.75
2022-11-09T07:24:58.252Z,0.75
2022-11-09T07:26:57.776Z,0.75
2022-11-09T07:28:58.351Z,0.75
2022-11-09T07:30:57.561Z,0.75
2022-11-09T07:33:33.443Z,0.75
2022-11-09T07:34:58.360Z,0.75
2022-11-09T07:37:04.931Z,0.75
2022-11-09T07:38:58.755Z,0.75
2022-11-09T07:40:58.000Z,0.75
2022-11-09T07:42:57.627Z,0.75
2022-11-09T07:44:58.022Z,0.75
2022-11-09T07:46:58.160Z,0.75
2022-11-09T07:48:57.559Z,0.75
2022-11-09T07:50:58.187Z,0.75
2022-11-09T07:52:58.275Z,0.75
2022-11-09T07:55:03.458Z,0.75
2022-11-09T07:56:58.272Z,0.75
2022-11-09T07:58:57.949Z,0.75
2022-11-09T08:01:07.494Z,0.75
2022-11-09T08:02:58.727Z,0.75
2022-11-09T08:04:58.435Z,0.75
2022-11-09T08:07:03.777Z,0.75
2022-11-09T08:08:58.181Z,0.75
2022-11-09T08:10:58.000Z,0.75
2022-11-09T08:13:00.062Z,0.75
2022-11-09T08:14:58.192Z,0.75
2022-11-09T08:17:00.537Z,0.75
2022-11-09T08:18:58.593Z,0.75
2022-11-09T08:20:57.968Z,0.75
2022-11-09T08:23:03.295Z,0.75
2022-11-09T08:24:57.803Z,0.75
2022-11-09T08:26:57.655Z,0.75
2022-11-09T08:29:01.112Z,0.75
2022-11-09T08:30:58.148Z,0.75
2022-11-09T08:32:57.636Z,0.75
2022-11-09T08:34:57.574Z,0.75
2022-11-09T08:36:58.226Z,0.75
2022-11-09T08:38:58.343Z,0.75
2022-11-09T08:40:58.045Z,0.75
2022-11-09T08:42:58.089Z,0.75
2022-11-09T08:44:58.452Z,0.75
2022-11-09T08:47:03.859Z,0.75
2022-11-09T08:48:58.241Z,0.75
2022-11-09T08:50:58.408Z,0.75
2022-11-09T08:52:57.710Z,0.75
2022-11-09T08:54:57.491Z,0.75
2022-11-09T08:56:58.058Z,0.75
2022-11-09T08:58:58.057Z,0.75
2022-11-09T09:01:00.546Z,0.75
2022-11-09T09:02:57.817Z,0.75
2022-11-09T09:04:58.192Z,0.75
2022-11-09T09:07:05.015Z,0.75
2022-11-09T09:08:58.330Z,0.75
2022-11-09T09:10:58.294Z,0.75
2022-11-09T09:12:58.429Z,0.75
2022-11-09T09:14:58.006Z,0.75
2022-11-09T09:16:58.237Z,0.75
2022-11-09T09:18:58.424Z,0.75
2022-11-09T09:20:57.814Z,0.75
2022-11-09T09:22:57.806Z,0.75
2022-11-09T09:24:58.109Z,0.75
2022-11-09T09:26:58.473Z,0.75
2022-11-09T09:28:58.055Z,0.75
2022-11-09T09:30:58.383Z,0.75
2022-11-09T09:32:57.948Z,12.44
2022-11-09T09:34:58.355Z,12.44
2022-11-09T09:36:59.810Z,12.44
2022-11-09T09:38:57.707Z,0.12
2022-11-09T09:40:58.430Z,0.12
2022-11-09T09:42:58.380Z,0.12
2022-11-09T09:44:58.444Z,0.12
2022-11-09T09:46:58.448Z,0.12
2022-11-09T09:48:58.016Z,0.12
2022-11-09T09:50:58.210Z,0.12
2022-11-09T09:53:29.267Z,0.12
2022-11-09T09:54:58.226Z,0.12
2022-11-09T09:56:58.036Z,0.12
2022-11-09T09:58:57.631Z,0.12
2022-11-09T10:00:59.541Z,0.12
2022-11-09T10:02:58.146Z,0.12
2022-11-09T10:04:58.637Z,0.12
2022-11-09T10:06:57.859Z,0.12
2022-11-09T10:08:57.827Z,0.12
2022-11-09T10:10:57.881Z,0.12
2022-11-09T10:12:58.082Z,0.12
2022-11-09T10:14:57.579Z,0.12
2022-11-09T10:16:57.963Z,0.12
2022-11-09T10:18:58.062Z,0.12
2022-11-09T10:21:04.015Z,0.12
2022-11-09T10:22:57.701Z,0.12
2022-11-09T10:25:57.812Z,0.12
2022-11-09T10:27:03.271Z,0.12
2022-11-09T10:29:28.516Z,0.12
2022-11-09T10:30:58.195Z,0.12
2022-11-09T10:32:57.687Z,0.12
2022-11-09T10:34:58.440Z,0.12
2022-11-09T10:37:04.312Z,0.12
2022-11-09T10:38:58.412Z,0.12
2022-11-09T10:40:58.313Z,0.12
2022-11-09T10:42:58.230Z,0.12
2022-11-09T10:45:02.743Z,1.1
2022-11-09T10:46:58.474Z,1.1
2022-11-09T10:48:58.385Z,1.1
2022-11-09T10:50:58.548Z,0.06
2022-11-09T10:52:59.216Z,0.06
2022-11-09T10:54:58.279Z,0.06
2022-11-09T10:57:29.347Z,0.04
2022-11-09T10:58:58.190Z,0.04
2022-11-09T11:01:00.325Z,0.04
2022-11-09T11:02:58.895Z,0.03
2022-11-09T11:04:57.870Z,0.03
2022-11-09T11:06:58.597Z,0.03
2022-11-09T11:08:58.317Z,0.03
2022-11-09T11:11:12.805Z,0.03
2022-11-09T11:12:57.835Z,0.03
2022-11-09T11:15:03.376Z,0.03
2022-11-09T11:16:58.568Z,0.03
2022-11-09T11:18:58.037Z,0.03
2022-11-09T11:20:58.082Z,0.03
2022-11-09T11:22:58.144Z,0.03
2022-11-09T11:24:58.004Z,0.03
2022-11-09T11:26:58.129Z,0.03
2022-11-09T11:28:58.546Z,0.03
2022-11-09T11:30:57.863Z,0.03
2022-11-09T11:33:01.848Z,0.03
2022-11-09T11:35:35.004Z,0.03
2022-11-09T11:36:58.024Z,0.03
2022-11-09T11:38:58.297Z,0.03
2022-11-09T11:40:57.819Z,0.03
2022-11-09T11:42:58.169Z,0.03
2022-11-09T11:45:38.531Z,0.03
2022-11-09T11:46:58.017Z,0.03
2022-11-09T11:48:58.414Z,0.03
2022-11-09T11:50:58.288Z,0.03
2022-11-09T11:52:57.583Z,0.03
2022-11-09T11:54:57.983Z,0.03
2022-11-09T11:56:58.427Z,0.03
2022-11-09T11:58:57.984Z,0.03
2022-11-09T12:01:00.455Z,0.03
2022-11-09T12:02:58.569Z,0.03
2022-11-09T12:05:05.813Z,0.03
2022-11-09T12:06:59.997Z,0.03
2022-11-09T12:08:57.913Z,0.03
2022-11-09T12:10:57.727Z,0.03
2022-11-09T12:12:57.594Z,0.03
2022-11-09T12:14:57.961Z,0.03
2022-11-09T12:16:58.645Z,0.03
2022-11-09T12:18:58.222Z,0.03
2022-11-09T12:20:58.511Z,0.03
2022-11-09T12:22:58.135Z,0.03
2022-11-09T12:24:58.723Z,0.03
2022-11-09T12:27:32.716Z,0.02
2022-11-09T12:28:58.316Z,0.02
2022-11-09T12:30:58.098Z,0.02
2022-11-09T12:32:57.790Z,0.03
2022-11-09T12:34:57.531Z,0.03
2022-11-09T12:36:59.071Z,0.03
2022-11-09T12:38:58.392Z,0.03
2022-11-09T12:40:58.488Z,0.03
2022-11-09T12:42:58.121Z,0.03
2022-11-09T12:45:02.381Z,0.02
2022-11-09T12:46:58.305Z,0.02
2022-11-09T12:48:58.269Z,0.02
2022-11-09T12:50:58.531Z,0.02
2022-11-09T12:52:57.704Z,0.02
2022-11-09T12:54:57.888Z,0.02
2022-11-09T12:56:57.888Z,0.02
2022-11-09T12:58:58.238Z,0.02
2022-11-09T13:01:02.188Z,0.02
2022-11-09T13:02:58.146Z,0.02
2022-11-09T13:04:58.102Z,0.02
2022-11-09T13:06:59.133Z,0.02
2022-11-09T13:08:58.190Z,0.02
2022-11-09T13:10:57.740Z,0.02
2022-11-09T13:13:01.289Z,0.02
2022-11-09T13:14:57.866Z,0.02
2022-11-09T13:16:58.262Z,0.02
2022-11-09T13:18:59.559Z,0.02
2022-11-09T13:21:33.771Z,0.02
2022-11-09T13:22:57.927Z,0.02
2022-11-09T13:25:09.284Z,0.02
2022-11-09T13:26:57.573Z,0.02
2022-11-09T13:28:57.611Z,0.02
2022-11-09T13:30:57.704Z,0.02
2022-11-09T13:32:58.142Z,0.02
2022-11-09T13:34:58.421Z,0.02
2022-11-09T13:36:57.441Z,0.02
2022-11-09T13:39:05.211Z,0.02
2022-11-09T13:40:58.463Z,0.02
2022-11-09T13:42:57.872Z,0.02
2022-11-09T13:45:01.937Z,0.02
2022-11-09T13:46:57.586Z,0.02
2022-11-09T13:48:57.891Z,0.02
2022-11-09T13:51:00.480Z,0.02
2022-11-09T13:52:58.955Z,0.02
2022-11-09T13:54:58.123Z,0.02
2022-11-09T13:57:01.223Z,0.02
2022-11-09T13:58:58.151Z,0.02
2022-11-09T14:01:00.477Z,0.02
2022-11-09T14:02:57.849Z,0.02
2022-11-09T14:04:58.220Z,0.02
2022-11-09T14:06:58.615Z,0.02
2022-11-09T14:09:03.293Z,0.02
2022-11-09T14:10:58.214Z,0.02
2022-11-09T14:12:57.562Z,0.02
2022-11-09T14:15:00.067Z,0.02
2022-11-09T14:16:57.704Z,0.02
2022-11-09T14:18:58.578Z,0.02
2022-11-09T14:20:58.114Z,0.02
2022-11-09T14:22:58.497Z,0.02
2022-11-09T14:24:58.155Z,0.02
2022-11-09T14:26:57.778Z,0.02
2022-11-09T14:28:58.286Z,0.02
2022-11-09T14:30:57.692Z,0.02
2022-11-09T14:32:57.942Z,0.02
2022-11-09T14:34:58.520Z,0.02
2022-11-09T14:37:03.106Z,0.02
2022-11-09T14:38:58.152Z,0.02
2022-11-09T14:40:58.135Z,0.02
2022-11-09T14:42:58.047Z,0.02
2022-11-09T14:44:58.189Z,0.02
2022-11-09T14:46:57.865Z,0.02
2022-11-09T14:48:58.858Z,0.02
2022-11-09T14:50:58.269Z,0.02
2022-11-09T14:52:57.854Z,0.02
2022-11-09T14:54:57.959Z,0.02
2022-11-09T14:56:58.205Z,0.02
2022-11-09T14:58:58.426Z,0.02
2022-11-09T15:01:07.289Z,0.02
2022-11-09T15:02:57.744Z,0.02
2022-11-09T15:04:58.939Z,0.02
2022-11-09T15:06:58.407Z,0.02
2022-11-09T15:08:58.501Z,0.02
2022-11-09T15:10:57.608Z,0.02
2022-11-09T15:12:57.942Z,0.02
2022-11-09T15:14:58.115Z,0.02
2022-11-09T15:16:58.397Z,0.02
2022-11-09T15:19:04.149Z,0.02
2022-11-09T15:20:57.977Z,0.02
2022-11-09T15:22:57.909Z,0.02
2022-11-09T15:24:58.206Z,0.02
2022-11-09T15:26:58.058Z,0.02
2022-11-09T15:28:58.671Z,0.02
2022-11-09T15:30:57.894Z,0.02
2022-11-09T15:32:57.676Z,0.02
2022-11-09T15:34:57.676Z,0.02
2022-11-09T15:36:57.680Z,0.02
2022-11-09T15:38:58.207Z,0.02
2022-11-09T15:40:57.643Z,0.02
2022-11-09T15:42:58.031Z,0.02
2022-11-09T15:44:58.113Z,0.02
2022-11-09T15:46:58.832Z,0.02
2022-11-09T15:48:57.878Z,0.02
2022-11-09T15:50:57.796Z,0.02
2022-11-09T15:52:57.547Z,0.02
2022-11-09T15:54:58.425Z,0.02
2022-11-09T15:56:58.483Z,0.02
2022-11-09T15:58:58.687Z,0.02
2022-11-09T16:01:08.103Z,0.02
2022-11-09T16:02:58.318Z,0.02
2022-11-09T16:04:58.019Z,0.02
2022-11-09T16:06:58.590Z,0.02
2022-11-09T16:08:58.568Z,0.02
2022-11-09T16:10:57.835Z,0.02
2022-11-09T16:12:58.191Z,0.02
2022-11-09T16:14:58.131Z,0.02
2022-11-09T16:16:58.095Z,0.02
2022-11-09T16:19:00.169Z,0.02
2022-11-09T16:20:58.357Z,0.02
2022-11-09T16:22:58.491Z,0.02
2022-11-09T16:24:57.631Z,0.02
2022-11-09T16:26:58.023Z,0.02
2022-11-09T16:28:58.347Z,0.02
2022-11-09T16:30:58.538Z,0.02
2022-11-09T16:32:57.812Z,2.23
2022-11-09T16:35:27.578Z,0.42
2022-11-09T16:37:05.142Z,0.42
2022-11-09T16:38:57.739Z,0.42
2022-11-09T16:40:57.928Z,0.42
2022-11-09T16:42:58.163Z,0.42
2022-11-09T16:44:57.689Z,0.42
2022-11-09T16:46:57.984Z,0.42
2022-11-09T16:48:58.363Z,0.42
2022-11-09T16:50:57.968Z,0.42
2022-11-09T16:52:57.866Z,0.42
2022-11-09T16:54:58.327Z,0.42
2022-11-09T16:56:58.022Z,0.42
2022-11-09T16:58:57.949Z,0.42
2022-11-09T17:01:35.709Z,0.42
2022-11-09T17:02:57.757Z,0.42
2022-11-09T17:04:57.824Z,0.42
2022-11-09T17:06:58.667Z,0.42
2022-11-09T17:08:57.832Z,0.42
2022-11-09T17:10:58.169Z,0.42
2022-11-09T17:12:58.394Z,0.42
2022-11-09T17:14:57.728Z,0.42
2022-11-09T17:16:57.777Z,0.42
2022-11-09T17:18:58.251Z,0.42
2022-11-09T17:20:57.876Z,0.42
2022-11-09T17:22:57.823Z,0.42
2022-11-09T17:24:57.578Z,0.42
2022-11-09T17:26:57.937Z,0.42
2022-11-09T17:29:04.124Z,0.42
2022-11-09T17:30:57.732Z,0.42
2022-11-09T17:32:58.063Z,0.42
2022-11-09T17:34:58.020Z,0.42
2022-11-09T17:37:35.967Z,0.42
2022-11-09T17:38:58.275Z,0.42
2022-11-09T17:40:58.067Z,0.42
2022-11-09T17:42:57.619Z,0.42
2022-11-09T17:44:57.925Z,0.42
2022-11-09T17:46:57.743Z,0.42
2022-11-09T17:48:58.098Z,0.42
2022-11-09T17:50:58.513Z,0.42
2022-11-09T17:52:58.209Z,0.42
2022-11-09T17:55:00.046Z,0.42
2022-11-09T17:56:57.814Z,0.42
2022-11-09T17:58:57.990Z,0.42
2022-11-09T18:01:03.762Z,0.42
2022-11-09T18:02:58.568Z,0.42
2022-11-09T18:05:03.165Z,0.42
2022-11-09T18:06:58.512Z,0.42
2022-11-09T18:09:40.737Z,0.42
2022-11-09T18:10:58.570Z,0.42
2022-11-09T18:12:58.128Z,0.42
2022-11-09T18:14:58.062Z,0.42
2022-11-09T18:17:02.980Z,0.42
2022-11-09T18:18:58.556Z,0.42
2022-11-09T18:20:57.947Z,0.42
2022-11-09T18:23:00.149Z,0.42
2022-11-09T18:24:58.045Z,0.42
2022-11-09T18:26:57.693Z,0.42
2022-11-09T18:28:58.208Z,0.42
2022-11-09T18:30:58.365Z,0.42
2022-11-09T18:32:58.058Z,0.42
2022-11-09T18:34:57.494Z,0.42
2022-11-09T18:36:58.151Z,0.42
2022-11-09T18:39:03.428Z,0.42
2022-11-09T18:40:58.423Z,0.42
2022-11-09T18:42:58.427Z,0.42
2022-11-09T18:44:59.058Z,0.42
2022-11-09T18:47:03.775Z,0.42
2022-11-09T18:48:58.314Z,0.42
2022-11-09T18:50:57.874Z,0.42
2022-11-09T18:52:58.249Z,0.42
2022-11-09T18:54:57.837Z,0.42
2022-11-09T18:57:03.123Z,0.42
2022-11-09T18:58:58.250Z,0.42
2022-11-09T19:01:00.757Z,0.42
2022-11-09T19:02:58.001Z,0.42
2022-11-09T19:04:57.927Z,0.42
2022-11-09T19:06:57.799Z,0.42
2022-11-09T19:08:58.386Z,0.42
2022-11-09T19:10:57.871Z,0.42
2022-11-09T19:12:57.595Z,0.42
2022-11-09T19:14:58.084Z,0.42
2022-11-09T19:16:58.312Z,0.42
2022-11-09T19:18:58.085Z,0.42
2022-11-09T19:20:58.470Z,0.42
2022-11-09T19:22:58.110Z,0.42
2022-11-09T19:24:58.040Z,0.42
2022-11-09T19:26:58.535Z,0.42
2022-11-09T19:28:58.020Z,0.42
2022-11-09T19:31:05.570Z,0.42
2022-11-09T19:32:58.242Z,0.42
2022-11-09T19:34:58.182Z,0.42
2022-11-09T19:37:25.771Z,0.42
2022-11-09T19:39:02.918Z,0.42
2022-11-09T19:41:02.659Z,0.42
2022-11-09T19:42:57.815Z,0.42
2022-11-09T19:44:57.765Z,0.42
2022-11-09T19:46:58.207Z,0.42
2022-11-09T19:48:58.062Z,0.42
2022-11-09T19:50:58.155Z,0.42
2022-11-09T19:52:58.089Z,0.42
2022-11-09T19:54:58.456Z,0.42
2022-11-09T19:56:58.419Z,0.42
2022-11-09T19:58:58.174Z,0.42
2022-11-09T20:01:00.258Z,0.42
2022-11-09T20:02:57.664Z,0.42
2022-11-09T20:05:01.451Z,0.42
2022-11-09T20:06:58.348Z,0.42
2022-11-09T20:08:58.176Z,0.42
2022-11-09T20:10:57.554Z,0.42
2022-11-09T20:12:58.056Z,0.42
2022-11-09T20:14:58.367Z,0.42
2022-11-09T20:17:03.048Z,0.42
2022-11-09T20:18:58.173Z,0.42
2022-11-09T20:20:57.888Z,0.42
2022-11-09T20:22:57.844Z,0.42
2022-11-09T20:24:58.234Z,0.42
2022-11-09T20:26:57.942Z,0.42
2022-11-09T20:28:58.255Z,0.42
2022-11-09T20:30:58.580Z,0.42
2022-11-09T20:33:01.666Z,0.42
2022-11-09T20:34:58.059Z,0.42
2022-11-09T20:36:58.173Z,0.42
2022-11-09T20:38:58.008Z,0.42
2022-11-09T20:40:57.759Z,0.42
2022-11-09T20:42:58.098Z,0.42
2022-11-09T20:44:58.216Z,0.42
2022-11-09T20:46:59.418Z,0.42
2022-11-09T20:49:39.853Z,0.42
2022-11-09T20:50:58.473Z,0.42
2022-11-09T20:52:57.964Z,0.42
2022-11-09T20:55:03.688Z,0.42
2022-11-09T20:56:57.909Z,0.42
2022-11-09T20:58:58.309Z,0.42
2022-11-09T21:01:08.371Z,0.42
2022-11-09T21:02:57.881Z,0.42
2022-11-09T21:04:58.480Z,0.42
2022-11-09T21:06:58.034Z,0.42
2022-11-09T21:08:58.469Z,0.42
2022-11-09T21:10:58.063Z,0.42
2022-11-09T21:12:57.905Z,0.42
2022-11-09T21:14:58.329Z,0.42
2022-11-09T21:16:57.931Z,0.42
2022-11-09T21:18:58.583Z,0.42
2022-11-09T21:20:57.842Z,0.42
2022-11-09T21:22:58.187Z,0.42
2022-11-09T21:24:57.799Z,0.42
2022-11-09T21:26:57.660Z,0.42
2022-11-09T21:28:58.121Z,0.42
2022-11-09T21:30:58.173Z,0.42
2022-11-09T21:32:57.572Z,0.42
2022-11-09T21:34:59.998Z,0.42
2022-11-09T21:36:58.452Z,0.42
2022-11-09T21:38:58.166Z,0.42
2022-11-09T21:40:57.610Z,0.42
2022-11-09T21:42:58.106Z,0.42
2022-11-09T21:44:57.946Z,0.42
2022-11-09T21:46:57.943Z,0.42
2022-11-09T21:48:58.486Z,0.42
2022-11-09T21:50:58.189Z,0.42
2022-11-09T21:52:58.462Z,0.42
2022-11-09T21:54:57.835Z,0.42
2022-11-09T21:56:58.013Z,0.42
2022-11-09T21:58:58.433Z,0.42
2022-11-09T22:01:00.758Z,0.42
2022-11-09T22:02:57.958Z,0.42
2022-11-09T22:04:57.854Z,0.42
2022-11-09T22:06:58.485Z,0.42
2022-11-09T22:08:57.994Z,0.42
2022-11-09T22:11:08.107Z,0.42
2022-11-09T22:12:57.532Z,0.42
2022-11-09T22:14:58.044Z,0.42
2022-11-09T22:16:57.677Z,0.42
2022-11-09T22:19:01.147Z,0.42
2022-11-09T22:20:58.203Z,0.42
2022-11-09T22:22:58.235Z,0.42
2022-11-09T22:24:58.487Z,0.42
2022-11-09T22:26:58.216Z,0.42
2022-11-09T22:28:57.953Z,0.42
2022-11-09T22:30:58.535Z,0.42
2022-11-09T22:32:57.878Z,0.42
2022-11-09T22:34:58.124Z,0.42
2022-11-09T22:36:57.663Z,0.42
2022-11-09T22:38:58.326Z,0.42
2022-11-09T22:40:57.661Z,0.42
2022-11-09T22:42:57.813Z,0.42
2022-11-09T22:44:57.760Z,0.42
2022-11-09T22:46:57.869Z,0.42
2022-11-09T22:48:58.547Z,0.42
2022-11-09T22:50:57.865Z,0.42
2022-11-09T22:53:03.303Z,0.42
2022-11-09T22:54:57.962Z,0.42
2022-11-09T22:56:57.743Z,0.42
2022-11-09T22:58:57.734Z,0.42
2022-11-09T23:00:57.821Z,0.42
2022-11-09T23:02:58.277Z,0.42
2022-11-09T23:04:58.257Z,0.42
2022-11-09T23:06:57.888Z,0.42
2022-11-09T23:09:00.757Z,0.42
2022-11-09T23:10:57.637Z,0.42
2022-11-09T23:12:57.721Z,0.42
2022-11-09T23:14:58.106Z,0.42
2022-11-09T23:16:57.767Z,0.42
2022-11-09T23:18:58.317Z,0.42
2022-11-09T23:20:58.670Z,0.42
2022-11-09T23:22:58.019Z,0.42
2022-11-09T23:24:57.489Z,0.42
2022-11-09T23:26:58.148Z,0.42
2022-11-09T23:28:57.928Z,0.42
2022-11-09T23:30:57.872Z,0.42
2022-11-09T23:32:58.583Z,0.42
2022-11-09T23:35:05.384Z,0.42
2022-11-09T23:36:58.136Z,0.42
2022-11-09T23:38:58.433Z,0.42
2022-11-09T23:40:59.464Z,0.42
2022-11-09T23:42:58.383Z,0.42
2022-11-09T23:44:57.947Z,0.42
2022-11-09T23:46:58.219Z,0.42
2022-11-09T23:48:58.187Z,0.42
2022-11-09T23:50:58.618Z,0.42
2022-11-09T23:52:57.695Z,0.42
2022-11-09T23:54:58.145Z,0.42
2022-11-09T23:56:57.579Z,0.42
2022-11-09T23:59:03.136Z,0.42
